Time;durP1;ratioP1;P1;durP2;ratioP2;P2;SDS_P1;SDS_P2;PMS_P1;PMS_P2;Temp;Humidity;BMP_temperature;BMP_pressure;BME280_temperature;BME280_humidity;BME280_pressure;Samples;Min_cycle;Max_cycle;Signal;HPM_P1;HPM_P2
2023/06/01 00:02:04;;;;;;;13.35;7.80;;;;;;;12.24;100.00;94021.16;5031914;28;20044;-59
2023/06/01 00:04:31;;;;;;;11.57;7.25;;;;;;;12.28;100.00;94024.63;5055975;28;20040;-63
2023/06/01 00:07:01;;;;;;;10.75;7.30;;;;;;;12.22;100.00;94026.31;5054885;28;20052;-60
2023/06/01 00:09:27;;;;;;;11.37;7.13;;;;;;;12.25;100.00;94024.69;5048550;28;20033;-63
2023/06/01 00:11:54;;;;;;;11.57;7.38;;;;;;;12.01;100.00;94019.25;5049019;28;20136;-61
2023/06/01 00:14:21;;;;;;;12.55;7.50;;;;;;;11.99;100.00;94016.94;5052106;28;20045;-57
2023/06/01 00:16:48;;;;;;;11.68;7.57;;;;;;;11.95;100.00;94024.47;5031375;28;20037;-59
2023/06/01 00:19:14;;;;;;;11.23;7.40;;;;;;;11.66;100.00;94023.41;5057952;28;20093;-62
2023/06/01 00:21:41;;;;;;;10.77;6.90;;;;;;;11.65;100.00;94024.59;5053789;28;20043;-60
2023/06/01 00:24:08;;;;;;;14.18;8.32;;;;;;;11.74;100.00;94019.34;5051273;28;20040;-59
2023/06/01 00:26:35;;;;;;;13.50;8.32;;;;;;;11.83;100.00;94010.53;5052668;28;20049;-58
2023/06/01 00:29:02;;;;;;;14.65;8.07;;;;;;;11.88;100.00;94015.56;5030812;28;20028;-58
2023/06/01 00:31:28;;;;;;;11.38;7.13;;;;;;;11.78;100.00;94014.56;5030438;28;20036;-63
2023/06/01 00:33:55;;;;;;;11.80;7.70;;;;;;;11.58;100.00;94015.28;5030942;28;20040;-59
2023/06/01 00:36:22;;;;;;;11.15;7.15;;;;;;;11.69;100.00;94011.56;5048433;28;20049;-59
2023/06/01 00:38:49;;;;;;;13.10;7.18;;;;;;;11.60;100.00;94006.63;5048724;28;20029;-61
2023/06/01 00:41:15;;;;;;;14.25;7.70;;;;;;;11.37;100.00;93999.94;5048362;28;20033;-58
2023/06/01 00:43:42;;;;;;;14.32;7.53;;;;;;;11.46;100.00;93993.91;5048154;28;20147;-59
2023/06/01 00:46:10;;;;;;;12.00;7.77;;;;;;;11.48;100.00;93997.00;5049613;28;20037;-59
2023/06/01 00:48:37;;;;;;;12.38;7.93;;;;;;;11.47;100.00;93998.22;5072902;28;20049;-62
2023/06/01 00:51:04;;;;;;;11.50;7.35;;;;;;;11.52;100.00;94002.44;5061644;28;20045;-59
2023/06/01 00:53:31;;;;;;;14.15;7.90;;;;;;;11.38;100.00;94001.50;5048138;28;20068;-60
2023/06/01 00:55:58;;;;;;;12.68;7.50;;;;;;;11.29;100.00;94006.75;5062094;28;20493;-58
2023/06/01 00:58:25;;;;;;;11.17;7.40;;;;;;;11.36;100.00;93992.88;5049367;28;20053;-58
2023/06/01 01:00:53;;;;;;;10.88;7.45;;;;;;;11.43;100.00;93993.97;5048714;28;20040;-59
2023/06/01 01:03:21;;;;;;;11.60;7.53;;;;;;;11.50;100.00;93999.34;5061502;28;20102;-58
2023/06/01 01:05:50;;;;;;;12.90;7.85;;;;;;;11.43;100.00;93994.75;5048714;28;20033;-61
2023/06/01 01:08:27;;;;;;;12.85;7.88;;;;;;;11.47;100.00;93997.41;5054536;28;20055;-61
2023/06/01 01:10:57;;;;;;;12.37;7.40;;;;;;;11.29;100.00;93994.97;5065307;28;20040;-60
2023/06/01 01:13:42;;;;;;;12.60;7.75;;;;;;;11.32;100.00;94003.16;5052813;28;20087;-59
2023/06/01 01:16:25;;;;;;;13.70;7.82;;;;;;;11.39;100.00;93996.78;5059839;28;20060;-58
2023/06/01 01:18:59;;;;;;;10.43;7.32;;;;;;;11.37;100.00;93996.44;5029203;28;20196;-58
2023/06/01 01:21:32;;;;;;;13.63;7.80;;;;;;;11.29;100.00;94004.00;5046806;28;20067;-62
2023/06/01 01:24:23;;;;;;;10.50;7.53;;;;;;;11.20;100.00;94004.53;5048000;28;20032;-58
2023/06/01 01:26:56;;;;;;;13.20;7.53;;;;;;;11.14;100.00;94002.69;5040557;28;20064;-59
2023/06/01 01:29:25;;;;;;;11.18;7.13;;;;;;;11.26;100.00;94015.06;5049709;28;20103;-56
2023/06/01 01:31:54;;;;;;;13.05;7.63;;;;;;;11.29;100.00;94001.28;5028286;28;20041;-59
2023/06/01 01:34:26;;;;;;;11.75;7.72;;;;;;;11.22;100.00;94000.59;5048093;28;20461;-58
2023/06/01 01:36:53;;;;;;;12.10;7.27;;;;;;;11.16;100.00;93998.31;5043771;28;20045;-61
2023/06/01 01:39:20;;;;;;;12.65;7.10;;;;;;;11.16;100.00;93992.81;5049238;28;20373;-59
2023/06/01 01:41:47;;;;;;;12.82;8.00;;;;;;;11.06;100.00;94001.25;5050425;28;20164;-62
2023/06/01 01:44:14;;;;;;;13.98;7.97;;;;;;;11.01;100.00;93997.00;5051333;28;20412;-58
2023/06/01 01:46:52;;;;;;;10.93;7.45;;;;;;;11.08;100.00;93999.63;5074613;28;20054;-58
2023/06/01 01:49:42;;;;;;;11.80;8.03;;;;;;;11.03;100.00;93997.38;5056864;28;20033;-58
2023/06/01 01:52:21;;;;;;;11.05;7.28;;;;;;;11.00;100.00;94000.94;5029204;28;20045;-59
2023/06/01 01:54:50;;;;;;;11.20;7.20;;;;;;;11.00;100.00;93993.47;5037038;28;20833;-59
2023/06/01 01:57:18;;;;;;;10.43;7.07;;;;;;;11.06;100.00;93993.00;5055259;28;20033;-61
2023/06/01 01:59:47;;;;;;;84.78;42.30;;;;;;;11.05;100.00;93994.97;5045401;28;20427;-59
2023/06/01 02:02:14;;;;;;;13.97;9.00;;;;;;;11.08;100.00;93991.38;5031019;28;20038;-59
2023/06/01 02:04:43;;;;;;;12.73;7.35;;;;;;;11.07;100.00;93995.34;5041786;28;20048;-62
2023/06/01 02:07:10;;;;;;;18.52;7.75;;;;;;;11.08;100.00;93990.63;5050976;28;20033;-61
2023/06/01 02:09:38;;;;;;;11.75;7.45;;;;;;;11.09;100.00;93990.22;5059589;28;20033;-58
2023/06/01 02:12:06;;;;;;;12.02;7.00;;;;;;;10.96;100.00;93981.75;5056304;28;20036;-61
2023/06/01 02:14:33;;;;;;;11.60;7.17;;;;;;;11.03;100.00;93986.38;5065722;28;20036;-58
2023/06/01 02:17:00;;;;;;;10.82;7.35;;;;;;;10.99;100.00;93993.91;5050093;28;20381;-59
2023/06/01 02:19:27;;;;;;;11.55;7.63;;;;;;;10.98;100.00;93995.09;5055216;28;20037;-58
2023/06/01 02:21:54;;;;;;;11.23;7.57;;;;;;;10.90;100.00;93988.16;5031350;28;20037;-58
2023/06/01 02:24:21;;;;;;;11.60;7.65;;;;;;;10.89;100.00;93992.09;5049965;28;20051;-59
2023/06/01 02:26:51;;;;;;;13.70;8.10;;;;;;;10.77;100.00;93991.47;5053656;28;20033;-58
2023/06/01 02:29:21;;;;;;;13.05;7.47;;;;;;;10.79;100.00;93991.84;5051136;28;20520;-58
2023/06/01 02:31:50;;;;;;;10.77;6.82;;;;;;;10.81;100.00;93985.94;5056739;28;20044;-58
2023/06/01 02:34:18;;;;;;;16.27;7.90;;;;;;;10.76;100.00;93989.91;5045764;28;20041;-58
2023/06/01 02:36:46;;;;;;;12.13;7.40;;;;;;;10.87;100.00;93989.00;5029558;28;20045;-58
2023/06/01 02:39:14;;;;;;;12.47;7.50;;;;;;;10.93;100.00;93988.09;5044587;28;20393;-59
2023/06/01 02:41:40;;;;;;;11.18;7.47;;;;;;;10.87;100.00;93984.28;5041200;28;20056;-59
2023/06/01 02:44:07;;;;;;;11.88;8.05;;;;;;;10.44;100.00;93984.09;5050854;28;20036;-57
2023/06/01 02:46:34;;;;;;;10.90;7.63;;;;;;;10.48;100.00;93987.59;5056579;28;20040;-58
2023/06/01 02:49:01;;;;;;;12.00;8.00;;;;;;;10.45;100.00;93980.19;5048160;28;20048;-58
2023/06/01 02:51:27;;;;;;;12.27;7.87;;;;;;;10.49;100.00;93987.19;5042281;28;20059;-58
2023/06/01 02:53:54;;;;;;;17.80;8.27;;;;;;;10.51;100.00;93995.00;5044182;28;20041;-61
2023/06/01 02:56:21;;;;;;;10.88;7.82;;;;;;;10.36;100.00;93988.91;5054998;28;20037;-58
2023/06/01 02:58:48;;;;;;;13.15;8.10;;;;;;;10.33;100.00;93987.00;5030700;28;20049;-58
2023/06/01 03:01:15;;;;;;;13.05;7.90;;;;;;;10.42;100.00;93994.72;5045154;28;20033;-58
2023/06/01 03:03:42;;;;;;;14.27;7.63;;;;;;;10.41;100.00;93990.44;5030101;28;20041;-57
2023/06/01 03:06:09;;;;;;;13.88;7.75;;;;;;;10.46;100.00;93989.97;5030336;28;20041;-58
2023/06/01 03:08:36;;;;;;;14.32;7.63;;;;;;;10.49;100.00;93992.66;5047125;28;20072;-62
2023/06/01 03:11:03;;;;;;;13.05;7.72;;;;;;;10.47;100.00;93989.56;5055165;28;20136;-59
2023/06/01 03:13:29;;;;;;;11.80;8.00;;;;;;;10.48;100.00;93991.09;5034708;28;20431;-58
2023/06/01 03:15:56;;;;;;;13.50;8.30;;;;;;;10.52;100.00;93991.03;5045078;28;20041;-57
2023/06/01 03:18:23;;;;;;;13.27;8.38;;;;;;;10.57;100.00;93994.13;5038373;28;20044;-58
2023/06/01 03:20:50;;;;;;;18.30;8.00;;;;;;;10.61;100.00;93976.84;5049318;28;20084;-58
2023/06/01 03:23:16;;;;;;;13.57;8.52;;;;;;;10.64;100.00;93992.47;5043272;28;20473;-58
2023/06/01 03:25:43;;;;;;;14.10;8.63;;;;;;;10.64;100.00;93986.97;5031429;28;20040;-59
2023/06/01 03:28:10;;;;;;;13.17;8.20;;;;;;;10.64;100.00;93995.97;5049694;28;20362;-58
2023/06/01 03:30:36;;;;;;;11.95;8.23;;;;;;;10.63;100.00;93994.44;5049421;28;20032;-59
2023/06/01 03:33:03;;;;;;;11.60;8.20;;;;;;;10.66;100.00;93990.06;5044090;28;20390;-62
2023/06/01 03:35:30;;;;;;;12.75;8.68;;;;;;;10.61;100.00;94001.53;5039268;28;20056;-60
2023/06/01 03:37:57;;;;;;;12.52;8.30;;;;;;;10.61;100.00;94001.53;5018212;28;20140;-60
2023/06/01 03:40:23;;;;;;;17.83;8.30;;;;;;;10.53;100.00;93996.13;5050636;28;20053;-62
2023/06/01 03:42:50;;;;;;;12.93;8.48;;;;;;;10.44;100.00;93995.09;5030470;28;20500;-59
2023/06/01 03:45:17;;;;;;;13.95;8.77;;;;;;;10.39;100.00;94004.56;5037817;28;20069;-59
2023/06/01 03:47:44;;;;;;;13.10;8.48;;;;;;;10.45;100.00;94002.91;5050150;28;20106;-62
2023/06/01 03:50:11;;;;;;;12.30;8.75;;;;;;;10.44;100.00;94008.81;5034398;28;20444;-59
2023/06/01 03:52:38;;;;;;;13.50;8.43;;;;;;;10.49;100.00;94009.13;5036407;28;20037;-60
2023/06/01 03:55:08;;;;;;;13.23;8.70;;;;;;;10.45;100.00;94013.88;5028907;28;20370;-62
2023/06/01 03:57:35;;;;;;;13.80;8.35;;;;;;;10.44;100.00;94009.56;5040664;28;20138;-60
2023/06/01 04:00:17;;;;;;;14.35;8.57;;;;;;;10.54;100.00;94011.41;5043813;28;20111;-60
2023/06/01 04:02:50;;;;;;;13.07;8.82;;;;;;;10.64;100.00;94009.69;5027899;28;20067;-63
2023/06/01 04:05:17;;;;;;;14.00;8.93;;;;;;;10.67;100.00;94008.09;5031403;28;20508;-59
2023/06/01 04:07:45;;;;;;;15.05;9.15;;;;;;;10.68;100.00;94009.66;5054257;28;20051;-59
2023/06/01 04:10:13;;;;;;;12.68;9.02;;;;;;;10.70;100.00;94013.53;5041012;28;20048;-59
2023/06/01 04:12:42;;;;;;;16.65;10.07;;;;;;;10.71;100.00;94015.09;5049924;28;20037;-59
2023/06/01 04:15:10;;;;;;;16.65;9.05;;;;;;;10.78;100.00;94019.69;5069287;28;20048;-59
2023/06/01 04:17:38;;;;;;;16.43;8.93;;;;;;;10.86;100.00;94012.91;5034224;28;20080;-59
2023/06/01 04:20:07;;;;;;;15.45;9.20;;;;;;;10.90;100.00;94021.09;5043899;28;20379;-59
2023/06/01 04:22:34;;;;;;;14.38;9.18;;;;;;;11.06;100.00;94025.97;5043100;28;20057;-59
2023/06/01 04:25:01;;;;;;;15.55;9.30;;;;;;;11.03;100.00;94027.56;5034342;28;20110;-61
2023/06/01 04:27:28;;;;;;;15.50;9.23;;;;;;;11.19;100.00;94029.69;5048267;28;20049;-62
2023/06/01 04:29:58;;;;;;;16.43;10.90;;;;;;;11.11;100.00;94020.78;5052724;28;20045;-59
2023/06/01 04:32:27;;;;;;;16.30;10.25;;;;;;;11.30;100.00;94024.00;5033241;28;20049;-60
2023/06/01 04:34:56;;;;;;;16.27;10.05;;;;;;;11.13;100.00;94029.38;5048361;28;20037;-59
2023/06/01 04:37:24;;;;;;;17.80;10.48;;;;;;;11.28;100.00;94029.16;5061156;28;20063;-60
2023/06/01 04:39:51;;;;;;;15.57;9.48;;;;;;;11.36;100.00;94030.59;5048430;28;20054;-59
2023/06/01 04:42:18;;;;;;;13.07;9.20;;;;;;;11.42;100.00;94031.66;5054622;28;20193;-60
2023/06/01 04:44:49;;;;;;;14.80;9.05;;;;;;;11.47;100.00;94027.66;5056277;28;20382;-64
2023/06/01 04:47:20;;;;;;;15.32;8.90;;;;;;;11.58;100.00;94034.53;5049563;28;20393;-61
2023/06/01 04:49:47;;;;;;;16.95;9.20;;;;;;;11.55;100.00;94035.38;5047835;28;20857;-59
2023/06/01 04:52:14;;;;;;;16.70;9.40;;;;;;;11.49;100.00;94022.50;5041252;28;20050;-59
2023/06/01 04:54:41;;;;;;;16.03;9.00;;;;;;;11.78;100.00;94026.31;5047551;28;20056;-64
2023/06/01 04:57:08;;;;;;;14.95;9.27;;;;;;;11.93;100.00;94023.34;5061403;28;20040;-60
2023/06/01 04:59:35;;;;;;;14.57;8.95;;;;;;;12.12;100.00;94033.59;5031292;28;20083;-59
2023/06/01 05:02:01;;;;;;;15.60;9.10;;;;;;;12.27;100.00;94025.81;5065157;28;20051;-59
2023/06/01 05:04:28;;;;;;;13.90;8.77;;;;;;;12.46;100.00;94027.03;5053278;28;20068;-59
2023/06/01 05:06:55;;;;;;;16.23;9.40;;;;;;;12.34;100.00;94027.66;5033941;28;20036;-62
2023/06/01 05:09:22;;;;;;;14.43;9.50;;;;;;;12.51;100.00;94028.50;5035385;28;20505;-60
2023/06/01 05:11:48;;;;;;;14.93;9.20;;;;;;;12.72;100.00;94030.03;5032265;28;20040;-59
2023/06/01 05:14:15;;;;;;;14.98;8.93;;;;;;;12.84;100.00;94037.63;5044270;28;20037;-59
2023/06/01 05:16:42;;;;;;;14.30;8.98;;;;;;;12.88;100.00;94029.28;5034159;28;20039;-59
2023/06/01 05:19:10;;;;;;;15.13;8.77;;;;;;;12.96;99.70;94023.19;5052677;28;20072;-60
2023/06/01 05:21:37;;;;;;;13.95;8.57;;;;;;;13.78;96.63;94030.69;5055287;28;20045;-62
2023/06/01 05:24:05;;;;;;;12.18;8.40;;;;;;;16.63;82.25;94021.50;5032142;28;20033;-59
2023/06/01 05:26:31;;;;;;;14.80;8.00;;;;;;;18.51;69.78;94024.69;5031370;28;20500;-62
2023/06/01 05:28:58;;;;;;;13.02;7.60;;;;;;;19.68;63.66;94016.13;5037334;28;20048;-61
2023/06/01 05:31:25;;;;;;;11.40;7.33;;;;;;;19.83;61.31;94019.03;5051339;28;20076;-57
2023/06/01 05:33:52;;;;;;;9.93;7.18;;;;;;;19.76;61.86;94014.59;5018011;28;20040;-59
2023/06/01 05:36:18;;;;;;;22.13;7.40;;;;;;;21.69;54.53;94014.81;5051667;28;20694;-61
2023/06/01 05:38:46;;;;;;;12.98;7.00;;;;;;;22.07;51.07;94012.25;5057532;28;20049;-57
2023/06/01 05:41:12;;;;;;;9.88;6.75;;;;;;;18.90;60.06;94015.84;5043464;28;20430;-59
2023/06/01 05:43:39;;;;;;;8.67;6.60;;;;;;;20.51;56.60;94016.34;5049985;28;20057;-56
2023/06/01 05:46:06;;;;;;;10.82;6.90;;;;;;;21.14;53.36;94015.44;5070632;28;20037;-57
2023/06/01 05:48:33;;;;;;;10.73;6.40;;;;;;;20.37;54.46;94016.34;5054203;28;20111;-58
2023/06/01 05:51:00;;;;;;;10.65;7.75;;;;;;;18.39;59.71;94017.28;5063250;28;20412;-60
2023/06/01 05:53:29;;;;;;;10.60;7.38;;;;;;;19.44;56.66;94016.88;5040302;28;20080;-57
2023/06/01 05:55:56;;;;;;;11.13;6.70;;;;;;;22.06;53.79;94005.91;5040846;28;20044;-61
2023/06/01 05:58:23;;;;;;;11.75;6.30;;;;;;;23.87;47.37;94005.63;5053031;28;20039;-59
2023/06/01 06:00:50;;;;;;;12.25;7.10;;;;;;;23.92;42.05;94013.31;5051230;28;20443;-58
2023/06/01 06:03:17;;;;;;;10.55;6.93;;;;;;;21.14;49.82;94013.41;5059481;28;20036;-57
2023/06/01 06:05:44;;;;;;;11.07;7.60;;;;;;;20.80;49.99;94008.53;5056494;28;20047;-58
2023/06/01 06:08:11;;;;;;;12.23;7.30;;;;;;;21.77;50.43;94006.00;5025337;28;20063;-59
2023/06/01 06:10:38;;;;;;;11.10;7.20;;;;;;;23.45;43.64;94011.94;5051529;28;20433;-58
2023/06/01 06:13:05;;;;;;;8.88;6.80;;;;;;;22.80;43.71;94013.13;5056675;28;20402;-58
2023/06/01 06:15:31;;;;;;;10.75;6.95;;;;;;;23.36;43.77;94015.69;5054660;28;20057;-63
2023/06/01 06:17:58;;;;;;;11.75;7.70;;;;;;;20.92;47.19;94008.22;5044251;28;20401;-58
2023/06/01 06:20:25;;;;;;;12.50;7.53;;;;;;;22.36;45.81;94008.59;5041326;28;20075;-61
2023/06/01 06:22:52;;;;;;;11.27;7.38;;;;;;;22.62;44.54;94008.63;5046252;28;20036;-64
2023/06/01 06:25:20;;;;;;;12.43;7.03;;;;;;;23.27;45.97;94013.06;5059828;28;20049;-59
2023/06/01 06:27:47;;;;;;;14.05;7.55;;;;;;;21.51;47.64;94007.44;5056395;28;21591;-59
2023/06/01 06:30:14;;;;;;;10.90;6.63;;;;;;;22.71;46.49;94014.03;5053116;28;20055;-58
2023/06/01 06:32:41;;;;;;;11.07;7.57;;;;;;;23.42;45.57;94010.91;5061349;28;20053;-59
2023/06/01 06:35:08;;;;;;;10.35;6.88;;;;;;;24.32;44.25;94003.03;5030337;28;20390;-59
2023/06/01 06:37:35;;;;;;;12.85;7.63;;;;;;;22.28;47.27;94002.66;5027426;28;20107;-59
2023/06/01 06:40:03;;;;;;;12.52;7.88;;;;;;;24.55;41.98;94005.97;5030645;28;20445;-59
2023/06/01 06:42:30;;;;;;;10.23;7.40;;;;;;;23.42;43.15;94016.50;5038939;28;20075;-59
2023/06/01 06:44:57;;;;;;;11.43;6.73;;;;;;;25.15;41.31;94011.44;5053357;28;20029;-60
2023/06/01 06:47:24;;;;;;;10.02;6.40;;;;;;;27.96;36.57;94008.00;5060664;28;20033;-59
2023/06/01 06:49:52;;;;;;;10.70;7.65;;;;;;;22.67;43.42;94019.09;5045558;28;20041;-59
2023/06/01 06:52:19;;;;;;;9.63;7.03;;;;;;;23.20;43.37;94013.50;5041643;28;20045;-59
2023/06/01 06:54:46;;;;;;;8.40;6.47;;;;;;;23.96;44.59;94015.09;5041101;28;20045;-59
2023/06/01 06:57:12;;;;;;;10.30;7.23;;;;;;;24.09;44.20;94015.44;5025443;28;20107;-59
2023/06/01 06:59:39;;;;;;;8.15;6.55;;;;;;;26.88;39.28;94005.22;5050970;28;20158;-64
2023/06/01 07:02:06;;;;;;;13.75;7.15;;;;;;;26.70;37.92;94010.19;5039183;28;20030;-61
2023/06/01 07:04:32;;;;;;;9.35;6.68;;;;;;;28.49;35.35;94008.44;5037821;28;20058;-59
2023/06/01 07:07:00;;;;;;;10.82;7.18;;;;;;;26.82;37.95;94007.28;5029819;28;20033;-59
2023/06/01 07:09:27;;;;;;;8.70;6.83;;;;;;;25.80;39.67;94009.66;5028055;28;20048;-59
2023/06/01 07:11:54;;;;;;;11.15;7.32;;;;;;;28.24;36.53;93999.25;5042886;28;20063;-61
2023/06/01 07:14:20;;;;;;;12.40;7.05;;;;;;;26.34;39.54;94002.88;5040503;28;20037;-59
2023/06/01 07:16:47;;;;;;;9.63;6.35;;;;;;;28.77;35.13;94010.19;5051713;28;20908;-65
2023/06/01 07:19:14;;;;;;;10.25;7.43;;;;;;;26.27;38.25;94007.78;5045055;28;20483;-59
2023/06/01 07:21:41;;;;;;;16.70;7.07;;;;;;;30.16;33.91;94000.03;5040045;28;20056;-59
2023/06/01 07:24:10;;;;;;;10.60;7.53;;;;;;;30.78;31.48;93995.25;5031777;28;20049;-64
2023/06/01 07:26:37;;;;;;;8.60;6.57;;;;;;;31.97;30.53;93996.09;5066875;28;20473;-59
2023/06/01 07:29:04;;;;;;;8.70;5.82;;;;;;;33.93;27.96;93999.44;5051791;28;20058;-63
2023/06/01 07:31:32;;;;;;;9.88;6.15;;;;;;;35.38;25.92;93995.50;5048456;28;20036;-60
2023/06/01 07:33:59;;;;;;;9.50;5.70;;;;;;;34.12;27.03;93996.19;5049215;28;20037;-60
2023/06/01 07:36:27;;;;;;;8.82;6.50;;;;;;;34.55;26.89;93991.59;5048978;28;20036;-61
2023/06/01 07:38:54;;;;;;;8.45;6.32;;;;;;;34.18;25.26;93985.41;5045836;28;20038;-61
2023/06/01 07:41:21;;;;;;;10.13;6.20;;;;;;;30.51;28.63;94000.19;5045661;28;20041;-60
2023/06/01 07:43:47;;;;;;;12.65;5.97;;;;;;;29.09;29.84;94002.53;5023878;28;21461;-59
2023/06/01 07:46:14;;;;;;;10.10;6.40;;;;;;;27.45;34.46;93997.16;5030462;28;20041;-60
2023/06/01 07:48:41;;;;;;;8.30;6.05;;;;;;;29.30;34.14;93993.53;5036812;28;20071;-62
2023/06/01 07:51:08;;;;;;;9.68;5.90;;;;;;;33.08;28.70;93995.63;5023709;28;20357;-60
2023/06/01 07:53:35;;;;;;;7.97;5.60;;;;;;;32.27;26.07;93986.31;5028276;28;20040;-59
2023/06/01 07:56:02;;;;;;;8.32;5.47;;;;;;;31.91;26.78;93986.97;5028780;28;20042;-59
2023/06/01 07:58:29;;;;;;;10.00;6.00;;;;;;;30.36;29.08;93986.56;5028507;28;20045;-59
2023/06/01 08:00:56;;;;;;;9.50;5.70;;;;;;;32.16;26.61;93979.63;5027381;28;20051;-59
2023/06/01 08:03:25;;;;;;;10.32;6.05;;;;;;;30.13;28.14;93984.16;5028034;28;20087;-61
2023/06/01 08:05:59;;;;;;;7.53;5.60;;;;;;;29.28;29.54;93987.66;5026807;28;20040;-60
2023/06/01 08:08:26;;;;;;;8.15;5.60;;;;;;;29.58;29.21;93978.16;5016158;28;20363;-60
2023/06/01 08:10:53;;;;;;;8.43;5.73;;;;;;;31.22;27.56;93979.31;5028339;28;20041;-59
2023/06/01 08:13:20;;;;;;;8.63;5.97;;;;;;;29.23;28.99;93975.13;5030727;28;20045;-59
2023/06/01 08:15:47;;;;;;;8.88;6.00;;;;;;;28.13;30.87;93985.25;5024293;28;21576;-64
2023/06/01 08:18:14;;;;;;;11.00;6.43;;;;;;;26.87;33.31;93984.75;5028318;28;20437;-61
2023/06/01 08:20:41;;;;;;;9.70;6.20;;;;;;;28.25;31.17;93993.09;5027223;28;20057;-59
2023/06/01 08:23:08;;;;;;;11.50;6.03;;;;;;;24.99;34.84;93984.88;5028235;28;20033;-60
2023/06/01 08:25:35;;;;;;;8.27;6.10;;;;;;;30.62;28.40;93977.28;5027747;28;20040;-59
2023/06/01 08:28:02;;;;;;;9.68;5.50;;;;;;;31.82;26.56;93974.81;5027126;28;20482;-59
2023/06/01 08:30:29;;;;;;;8.63;5.38;;;;;;;30.79;28.32;93976.94;5028192;28;20074;-59
2023/06/01 08:32:56;;;;;;;8.15;5.45;;;;;;;33.08;25.15;93975.72;5028410;28;20048;-60
2023/06/01 08:35:25;;;;;;;8.03;5.50;;;;;;;30.88;27.30;93984.22;5028123;28;20098;-59
2023/06/01 08:37:51;;;;;;;6.97;5.18;;;;;;;32.42;24.23;93987.16;5028379;28;20034;-60
2023/06/01 08:40:18;;;;;;;7.32;5.72;;;;;;;27.44;31.17;93985.13;5028688;28;20045;-59
2023/06/01 08:42:45;;;;;;;8.68;6.03;;;;;;;26.37;32.71;93979.34;5033862;28;20049;-59
2023/06/01 08:45:13;;;;;;;7.85;6.10;;;;;;;25.95;33.78;93984.09;5040340;28;20062;-58
2023/06/01 08:47:41;;;;;;;8.60;5.50;;;;;;;29.98;28.69;93979.03;5070568;28;20601;-59
2023/06/01 08:50:11;;;;;;;9.25;5.80;;;;;;;29.67;28.84;93991.91;5044629;28;20041;-59
2023/06/01 08:52:41;;;;;;;13.52;5.88;;;;;;;31.40;26.20;93977.63;5030994;28;20061;-59
2023/06/01 08:55:08;;;;;;;8.52;5.82;;;;;;;25.51;33.05;93992.84;5034610;28;20102;-59
2023/06/01 08:57:35;;;;;;;9.68;6.20;;;;;;;27.18;32.68;93993.25;5065727;28;20472;-59
2023/06/01 09:00:02;;;;;;;8.60;6.00;;;;;;;29.76;29.92;93987.91;5044012;28;20041;-59
2023/06/01 09:02:29;;;;;;;11.32;6.03;;;;;;;26.73;32.63;93987.91;5053404;28;20156;-60
2023/06/01 09:04:56;;;;;;;9.57;5.97;;;;;;;28.59;31.25;93984.22;5045421;28;20037;-62
2023/06/01 09:07:23;;;;;;;10.50;6.20;;;;;;;29.17;29.19;93980.09;5040319;28;20033;-59
2023/06/01 09:09:50;;;;;;;8.07;6.03;;;;;;;28.85;29.57;93980.78;5028903;28;20060;-62
2023/06/01 09:12:25;;;;;;;9.53;5.80;;;;;;;28.25;30.00;93978.97;5027949;28;20044;-59
2023/06/01 09:15:16;;;;;;;8.05;5.88;;;;;;;27.21;31.26;93981.69;5036504;28;21653;-62
2023/06/01 09:17:49;;;;;;;9.18;6.18;;;;;;;25.85;33.99;93986.38;5033802;28;20048;-59
2023/06/01 09:20:27;;;;;;;9.93;6.28;;;;;;;28.26;31.05;93977.66;5043125;28;20059;-59
2023/06/01 09:22:55;;;;;;;11.43;6.30;;;;;;;28.11;31.18;93971.69;5042467;28;20042;-60
2023/06/01 09:25:30;;;;;;;7.60;6.13;;;;;;;26.67;33.40;93968.22;5036636;28;20032;-64
2023/06/01 09:28:00;;;;;;;9.13;6.13;;;;;;;27.25;32.96;93975.81;5035559;28;20532;-59
2023/06/01 09:30:47;;;;;;;9.30;6.63;;;;;;;26.10;34.10;93976.91;5045327;28;20048;-60
2023/06/01 09:33:16;;;;;;;8.82;6.68;;;;;;;24.50;36.88;93973.78;5023466;28;20163;-60
2023/06/01 09:35:46;;;;;;;8.88;6.20;;;;;;;25.18;36.66;93973.91;5049085;28;20101;-61
2023/06/01 09:38:21;;;;;;;11.80;6.93;;;;;;;25.05;36.89;93974.44;5055170;28;20045;-62
2023/06/01 09:41:02;;;;;;;10.70;7.20;;;;;;;24.83;37.46;93972.34;5054664;28;22068;-59
2023/06/01 09:43:30;;;;;;;12.63;6.25;;;;;;;26.72;33.76;93963.84;5046127;28;20045;-61
2023/06/01 09:46:13;;;;;;;11.10;6.10;;;;;;;29.16;30.02;93958.78;5041399;28;20045;-60
2023/06/01 09:48:43;;;;;;;9.40;6.05;;;;;;;31.18;27.73;93952.63;5036742;28;20509;-61
2023/06/01 09:51:22;;;;;;;9.20;6.00;;;;;;;28.50;30.84;93962.00;5027934;28;20045;-60
2023/06/01 09:53:49;;;;;;;9.02;6.40;;;;;;;26.51;33.38;93959.31;5037728;28;20071;-60
2023/06/01 09:56:17;;;;;;;9.02;6.00;;;;;;;27.52;32.95;93950.72;5052528;28;20132;-62
2023/06/01 09:58:43;;;;;;;10.45;6.38;;;;;;;26.80;33.40;93951.53;5036686;28;20040;-65
2023/06/01 10:01:13;;;;;;;9.07;6.10;;;;;;;27.04;33.00;93950.81;5052706;28;20067;-59
2023/06/01 10:03:42;;;;;;;8.77;6.00;;;;;;;28.49;31.11;93960.44;5059796;28;20040;-59
2023/06/01 10:06:14;;;;;;;9.05;6.38;;;;;;;25.97;33.85;93956.97;5031672;28;20059;-59
2023/06/01 10:08:42;;;;;;;10.30;6.20;;;;;;;26.81;32.63;93953.03;5050118;28;20181;-62
2023/06/01 10:11:09;;;;;;;9.48;6.50;;;;;;;24.99;35.39;93959.63;5057456;28;20063;-62
2023/06/01 10:13:36;;;;;;;10.18;6.22;;;;;;;26.15;34.51;93954.88;5056402;28;20063;-60
2023/06/01 10:16:03;;;;;;;8.40;6.00;;;;;;;27.52;32.50;93954.31;5046404;28;20045;-64
2023/06/01 10:18:32;;;;;;;8.40;6.32;;;;;;;27.25;32.67;93953.28;5048600;28;20044;-60
2023/06/01 10:20:59;;;;;;;8.38;5.82;;;;;;;27.47;31.93;93946.69;5064661;28;20040;-62
2023/06/01 10:23:27;;;;;;;10.55;6.43;;;;;;;27.20;32.55;93949.16;5050756;28;20045;-59
2023/06/01 10:26:05;;;;;;;9.40;6.68;;;;;;;23.16;38.31;93966.16;5043571;28;20037;-60
2023/06/01 10:28:35;;;;;;;10.37;6.83;;;;;;;24.18;36.78;93956.31;5040474;28;20059;-59
2023/06/01 10:31:40;;;;;;;9.32;6.47;;;;;;;27.58;32.87;93951.44;5053905;28;20045;-62
2023/06/01 10:34:12;;;;;;;9.60;6.63;;;;;;;25.71;34.47;93941.16;5039073;28;20116;-60
2023/06/01 10:36:52;;;;;;;8.82;5.88;;;;;;;26.94;33.12;93951.66;5047327;28;20049;-64
2023/06/01 10:39:24;;;;;;;9.13;6.68;;;;;;;24.72;36.56;93950.63;5041383;28;20037;-64
2023/06/01 10:41:51;;;;;;;9.40;6.63;;;;;;;24.76;36.26;93944.03;5060662;28;20556;-58
2023/06/01 10:44:45;;;;;;;10.55;6.55;;;;;;;25.16;35.86;93942.00;5032951;28;20056;-59
2023/06/01 10:47:12;;;;;;;9.25;6.50;;;;;;;25.76;34.79;93941.69;5056773;28;20059;-59
2023/06/01 10:50:01;;;;;;;9.95;6.32;;;;;;;27.44;32.18;93936.44;5054787;28;20049;-62
2023/06/01 10:52:34;;;;;;;8.82;6.25;;;;;;;27.39;32.32;93938.03;5029697;28;20060;-61
2023/06/01 10:55:06;;;;;;;10.70;6.13;;;;;;;26.92;33.41;93940.91;5031020;28;20045;-59
2023/06/01 10:57:34;;;;;;;10.13;6.13;;;;;;;27.19;32.67;93935.63;5040140;28;20551;-60
2023/06/01 11:00:26;;;;;;;9.85;5.97;;;;;;;27.69;32.22;93935.19;5050589;28;20040;-60
2023/06/01 11:02:57;;;;;;;9.88;6.30;;;;;;;26.00;35.31;93933.47;5036818;28;20632;-58
2023/06/01 11:05:51;;;;;;;9.80;6.30;;;;;;;25.21;36.28;93936.41;5016082;28;20041;-64
2023/06/01 11:08:21;;;;;;;8.63;5.73;;;;;;;25.98;34.22;93926.81;5057434;28;20364;-62
2023/06/01 11:11:09;;;;;;;9.48;6.40;;;;;;;25.93;34.63;93939.63;5049349;28;20187;-60
2023/06/01 11:13:37;;;;;;;11.10;6.70;;;;;;;23.99;37.50;93935.63;5028121;28;20396;-59
2023/06/01 11:16:04;;;;;;;12.45;6.40;;;;;;;25.07;36.08;93932.56;5050397;28;20113;-59
2023/06/01 11:18:46;;;;;;;11.40;6.40;;;;;;;25.36;37.16;93930.53;5052715;28;20049;-59
2023/06/01 11:21:27;;;;;;;9.83;6.47;;;;;;;25.03;36.95;93923.63;5030403;28;20037;-59
2023/06/01 11:23:56;;;;;;;12.93;6.28;;;;;;;25.71;36.84;93929.94;5045551;28;20883;-59
2023/06/01 11:26:29;;;;;;;9.45;6.38;;;;;;;26.17;35.32;93922.13;5058516;28;20029;-58
2023/06/01 11:29:04;;;;;;;11.75;6.70;;;;;;;25.90;35.62;93910.50;5049759;28;20106;-62
2023/06/01 11:31:40;;;;;;;9.48;6.47;;;;;;;24.36;36.39;93912.28;5049151;28;20416;-59
2023/06/01 11:34:09;;;;;;;8.60;6.23;;;;;;;24.73;35.42;93912.13;5050085;28;20039;-58